createdAt,value
2023-01-08T00:01:06.546Z,7.03
2023-01-08T00:03:33.938Z,7.28
2023-01-08T00:06:02.566Z,6.03
2023-01-08T00:08:30.602Z,6.70
2023-01-08T00:10:58.053Z,6.25
2023-01-08T00:13:25.445Z,6.93
2023-01-08T00:15:52.625Z,6.25
2023-01-08T00:18:19.532Z,5.95
2023-01-08T00:20:46.771Z,4.35
2023-01-08T00:23:15.113Z,6.85
2023-01-08T00:25:42.163Z,7.90
2023-01-08T00:28:09.547Z,5.75
2023-01-08T00:30:37.241Z,6.22
2023-01-08T00:33:04.602Z,7.43
2023-01-08T00:35:31.581Z,5.72
2023-01-08T00:37:58.484Z,7.03
2023-01-08T00:40:25.355Z,6.30
2023-01-08T00:42:52.237Z,6.95
2023-01-08T00:45:19.126Z,6.47
2023-01-08T00:47:45.989Z,5.47
2023-01-08T00:50:12.967Z,5.75
2023-01-08T00:52:39.867Z,6.30
2023-01-08T00:55:07.324Z,7.35
2023-01-08T00:57:36.054Z,6.03
2023-01-08T01:00:04.615Z,6.38
2023-01-08T01:02:31.489Z,7.15
2023-01-08T01:04:58.351Z,6.82
2023-01-08T01:07:25.722Z,7.32
2023-01-08T01:09:52.607Z,6.25
2023-01-08T01:12:19.506Z,7.20
2023-01-08T01:14:46.449Z,7.65
2023-01-08T01:17:13.763Z,7.20
2023-01-08T01:19:41.323Z,6.78
2023-01-08T01:22:08.249Z,6.97
2023-01-08T01:24:35.212Z,6.55
2023-01-08T01:27:02.317Z,5.63
2023-01-08T01:29:29.257Z,6.10
2023-01-08T01:31:56.124Z,6.88
2023-01-08T01:34:23.097Z,6.57
2023-01-08T01:36:49.992Z,6.80
2023-01-08T01:39:17.366Z,7.68
2023-01-08T01:41:45.784Z,6.53
2023-01-08T01:44:45.242Z,7.43
2023-01-08T01:47:18.033Z,7.07
2023-01-08T01:50:02.364Z,7.68
2023-01-08T01:52:33.246Z,5.47
2023-01-08T01:55:02.030Z,2.17
2023-01-08T01:57:30.877Z,7.20
2023-01-08T01:59:59.264Z,6.30
2023-01-08T02:02:26.653Z,6.72
2023-01-08T02:04:53.698Z,6.00
2023-01-08T02:07:50.112Z,7.22
2023-01-08T02:10:29.797Z,5.35
2023-01-08T02:13:08.319Z,7.20
2023-01-08T02:16:02.935Z,6.93
2023-01-08T02:18:51.723Z,7.82
2023-01-08T02:21:31.523Z,8.15
2023-01-08T02:24:03.272Z,7.72
2023-01-08T02:26:35.882Z,6.07
2023-01-08T02:29:09.297Z,7.78
2023-01-08T02:31:39.595Z,7.57
2023-01-08T02:34:06.819Z,7.30
2023-01-08T02:36:50.885Z,7.57
2023-01-08T02:39:20.829Z,7.07
2023-01-08T02:42:16.425Z,7.13
2023-01-08T02:45:07.707Z,6.78
2023-01-08T02:48:02.530Z,6.18
2023-01-08T02:50:47.287Z,7.40
2023-01-08T02:53:45.305Z,6.47
2023-01-08T02:56:16.462Z,7.20
2023-01-08T02:58:45.004Z,7.35
2023-01-08T03:01:13.408Z,5.88
2023-01-08T03:03:44.437Z,7.22
2023-01-08T03:06:15.151Z,6.20
2023-01-08T03:08:45.151Z,6.28
2023-01-08T03:11:14.600Z,5.95
2023-01-08T03:14:11.377Z,6.53
2023-01-08T03:16:44.345Z,5.75
2023-01-08T03:19:21.555Z,6.57
2023-01-08T03:21:50.518Z,6.55
2023-01-08T03:24:24.366Z,6.75
2023-01-08T03:26:56.244Z,6.82
2023-01-08T03:29:24.582Z,7.38
2023-01-08T03:31:56.402Z,6.85
2023-01-08T03:34:26.339Z,8.02
2023-01-08T03:36:57.510Z,7.15
2023-01-08T03:39:38.602Z,7.28
2023-01-08T03:42:10.168Z,6.75
2023-01-08T03:47:05.435Z,6.90
2023-01-08T03:49:32.461Z,7.25
2023-01-08T03:51:59.364Z,7.45
2023-01-08T03:54:31.582Z,6.80
2023-01-08T03:56:58.749Z,6.53
2023-01-08T03:59:25.809Z,6.20
2023-01-08T04:01:52.807Z,6.65
2023-01-08T04:04:19.911Z,7.63
2023-01-08T04:06:46.820Z,7.28
2023-01-08T04:09:13.701Z,6.28
2023-01-08T04:11:40.613Z,6.50
2023-01-08T04:14:07.579Z,5.32
2023-01-08T04:16:34.825Z,7.05
2023-01-08T04:19:01.690Z,6.53
2023-01-08T04:21:28.679Z,6.28
2023-01-08T04:23:55.788Z,6.47
2023-01-08T04:26:22.782Z,6.28
2023-01-08T04:28:49.657Z,7.07
2023-01-08T04:31:16.614Z,6.45
2023-01-08T04:33:43.520Z,6.78
2023-01-08T04:36:10.458Z,7.00
2023-01-08T04:38:37.399Z,6.63
2023-01-08T04:41:04.323Z,7.07
2023-01-08T04:43:31.851Z,6.28
2023-01-08T04:46:00.154Z,6.95
2023-01-08T04:48:27.960Z,6.97
2023-01-08T04:50:55.259Z,6.72
2023-01-08T04:53:22.146Z,7.20
2023-01-08T04:55:49.041Z,6.65
2023-01-08T04:58:16.032Z,7.35
2023-01-08T05:00:42.981Z,7.07
2023-01-08T05:03:09.934Z,6.53
2023-01-08T05:05:37.165Z,5.25
2023-01-08T05:08:04.620Z,7.93
2023-01-08T05:10:31.605Z,6.50
2023-01-08T05:12:59.840Z,7.28
2023-01-08T05:15:27.244Z,7.05
2023-01-08T05:18:01.785Z,7.57
2023-01-08T05:20:29.143Z,7.63
2023-01-08T05:22:56.495Z,6.60
2023-01-08T05:25:23.397Z,6.50
2023-01-08T05:27:50.427Z,6.20
2023-01-08T05:30:17.479Z,8.20
2023-01-08T05:32:44.511Z,7.25
2023-01-08T05:35:11.484Z,7.60
2023-01-08T05:37:38.717Z,7.40
2023-01-08T05:40:06.464Z,6.47
2023-01-08T05:42:37.427Z,7.63
2023-01-08T05:45:06.358Z,8.43
2023-01-08T05:47:34.432Z,8.02
2023-01-08T05:50:02.125Z,6.53
2023-01-08T05:52:29.387Z,7.05
2023-01-08T05:54:56.321Z,8.32
2023-01-08T05:57:23.220Z,7.18
2023-01-08T05:59:50.055Z,7.78
2023-01-08T06:02:17.002Z,7.03
2023-01-08T06:04:44.360Z,8.73
2023-01-08T06:07:11.265Z,8.23
2023-01-08T06:09:38.227Z,7.28
2023-01-08T06:12:05.273Z,7.82
2023-01-08T06:14:32.179Z,7.65
2023-01-08T06:16:59.126Z,8.73
2023-01-08T06:19:26.042Z,7.80
2023-01-08T06:21:52.949Z,7.28
2023-01-08T06:24:19.867Z,8.77
2023-01-08T06:26:46.709Z,8.82
2023-01-08T06:29:13.640Z,7.90
2023-01-08T06:31:40.668Z,7.85
2023-01-08T06:34:07.622Z,8.80
2023-01-08T06:36:34.501Z,7.75
2023-01-08T06:39:01.383Z,8.45
2023-01-08T06:41:28.256Z,8.20
2023-01-08T06:43:55.161Z,8.93
2023-01-08T06:46:22.120Z,8.20
2023-01-08T06:48:49.029Z,7.55
2023-01-08T06:51:15.981Z,7.45
2023-01-08T06:53:43.017Z,7.57
2023-01-08T06:56:11.075Z,8.35
2023-01-08T06:58:39.390Z,8.38
2023-01-08T07:01:06.621Z,8.27
2023-01-08T07:03:33.578Z,7.15
2023-01-08T07:06:03.140Z,9.00
2023-01-08T07:08:30.007Z,6.80
2023-01-08T07:10:56.846Z,9.68
2023-01-08T07:13:24.482Z,9.38
2023-01-08T07:15:51.628Z,8.50
2023-01-08T07:18:18.788Z,8.70
2023-01-08T07:20:45.653Z,8.73
2023-01-08T07:23:12.659Z,8.88
2023-01-08T07:25:39.641Z,9.50
2023-01-08T07:28:07.093Z,7.93
2023-01-08T07:30:34.040Z,8.70
2023-01-08T07:33:01.937Z,8.32
2023-01-08T07:35:29.471Z,9.40
2023-01-08T07:37:56.844Z,10.07
2023-01-08T07:40:24.262Z,8.30
2023-01-08T07:43:04.466Z,7.90
2023-01-08T07:45:31.788Z,9.95
2023-01-08T07:47:59.267Z,8.98
2023-01-08T07:50:26.692Z,8.95
2023-01-08T07:52:53.588Z,9.57
2023-01-08T07:55:20.477Z,9.55
2023-01-08T07:57:47.325Z,9.07
2023-01-08T08:00:15.041Z,10.32
2023-01-08T08:02:42.022Z,9.07
2023-01-08T08:05:09.404Z,9.38
2023-01-08T08:07:36.464Z,10.38
2023-01-08T08:10:04.570Z,10.30
2023-01-08T08:12:31.832Z,9.93
2023-01-08T08:14:58.723Z,10.43
2023-01-08T08:17:26.960Z,9.70
2023-01-08T08:19:54.046Z,10.50
2023-01-08T08:22:21.109Z,10.70
2023-01-08T08:24:47.986Z,10.63
2023-01-08T08:27:14.821Z,10.93
2023-01-08T08:29:41.668Z,10.30
2023-01-08T08:32:08.518Z,11.00
2023-01-08T08:34:35.390Z,10.82
2023-01-08T08:37:02.261Z,11.95
2023-01-08T08:39:29.147Z,10.95
2023-01-08T08:41:56.097Z,9.13
2023-01-08T08:44:23.263Z,12.23
2023-01-08T08:46:50.370Z,10.73
2023-01-08T08:49:17.279Z,10.10
2023-01-08T08:51:44.204Z,10.35
2023-01-08T08:54:11.870Z,11.05
2023-01-08T08:56:39.107Z,11.85
2023-01-08T08:59:13.294Z,11.35
2023-01-08T09:01:40.394Z,11.15
2023-01-08T09:04:07.327Z,11.48
2023-01-08T09:06:34.280Z,11.57
2023-01-08T09:09:01.132Z,11.73
2023-01-08T09:11:28.044Z,10.85
2023-01-08T09:13:55.040Z,9.25
2023-01-08T09:16:22.028Z,11.38
2023-01-08T09:18:49.576Z,10.32
2023-01-08T09:21:16.515Z,9.55
2023-01-08T09:23:43.380Z,14.43
2023-01-08T09:26:10.321Z,11.70
2023-01-08T09:28:38.079Z,10.75
2023-01-08T09:31:05.318Z,10.32
2023-01-08T09:33:32.692Z,10.52
2023-01-08T09:35:59.569Z,12.18
2023-01-08T09:38:29.559Z,11.45
2023-01-08T09:41:16.651Z,12.07
2023-01-08T09:43:47.621Z,11.52
2023-01-08T09:46:15.871Z,11.07
2023-01-08T09:48:43.304Z,11.23
2023-01-08T09:51:13.553Z,12.30
2023-01-08T09:53:42.672Z,12.70
2023-01-08T09:56:16.305Z,13.02
2023-01-08T09:58:55.138Z,10.45
2023-01-08T10:01:25.257Z,11.77
2023-01-08T10:04:05.672Z,11.95
2023-01-08T10:06:33.009Z,12.32
2023-01-08T10:09:00.268Z,11.68
2023-01-08T10:11:35.475Z,11.73
2023-01-08T10:14:02.394Z,11.80
2023-01-08T10:16:38.013Z,13.23
2023-01-08T10:19:05.661Z,11.25
2023-01-08T10:21:38.221Z,10.73
2023-01-08T10:24:05.342Z,11.18
2023-01-08T10:26:36.586Z,11.05
2023-01-08T10:29:07.429Z,9.25
2023-01-08T10:31:38.795Z,11.88
2023-01-08T10:34:10.753Z,10.45
2023-01-08T10:36:42.435Z,11.23
2023-01-08T10:39:26.725Z,10.18
2023-01-08T10:41:57.677Z,10.40
2023-01-08T10:44:26.288Z,10.30
2023-01-08T10:46:58.340Z,11.32
2023-01-08T10:49:36.908Z,11.60
2023-01-08T10:52:04.061Z,11.52
2023-01-08T10:54:38.021Z,12.68
2023-01-08T10:57:26.218Z,12.15
2023-01-08T10:59:54.208Z,11.43
2023-01-08T11:02:39.700Z,11.35
2023-01-08T11:05:10.941Z,13.60
2023-01-08T11:07:40.317Z,10.65
2023-01-08T11:10:21.372Z,11.13
2023-01-08T11:12:48.254Z,11.30
2023-01-08T11:15:15.058Z,10.73
2023-01-08T11:17:42.001Z,12.10
2023-01-08T11:20:31.183Z,10.27
2023-01-08T11:23:14.337Z,11.60
2023-01-08T11:25:45.488Z,10.38
2023-01-08T11:28:19.558Z,11.05
2023-01-08T11:30:54.988Z,10.38
2023-01-08T11:33:25.748Z,13.25
2023-01-08T11:36:03.911Z,11.65
2023-01-08T11:38:30.770Z,12.88
2023-01-08T11:41:35.079Z,11.38
2023-01-08T11:44:10.265Z,10.18
2023-01-08T11:46:52.647Z,10.80
2023-01-08T11:49:41.441Z,10.52
2023-01-08T11:52:45.386Z,10.65
2023-01-08T11:55:24.256Z,11.68
2023-01-08T11:58:07.275Z,10.43
2023-01-08T12:00:55.617Z,11.20
2023-01-08T12:03:28.361Z,10.48
2023-01-08T12:05:58.221Z,11.30
2023-01-08T12:08:48.525Z,12.95
2023-01-08T12:11:15.367Z,7.85
2023-01-08T12:13:53.895Z,11.75
2023-01-08T12:17:02.004Z,12.32
2023-01-08T12:20:13.347Z,11.85
2023-01-08T12:23:14.015Z,12.27
2023-01-08T12:26:10.140Z,11.57
2023-01-08T12:29:10.923Z,12.68
2023-01-08T12:32:02.985Z,12.77
2023-01-08T12:34:49.259Z,12.32
2023-01-08T12:37:24.634Z,11.10
2023-01-08T12:40:13.479Z,13.73
2023-01-08T12:42:47.225Z,13.45
2023-01-08T12:45:29.437Z,12.30
2023-01-08T12:48:17.069Z,13.50
2023-01-08T12:51:02.517Z,13.05
2023-01-08T12:53:40.234Z,13.95
2023-01-08T12:56:20.681Z,13.23
2023-01-08T12:59:04.850Z,14.48
2023-01-08T13:01:58.119Z,13.82
2023-01-08T13:04:25.193Z,15.20
2023-01-08T13:07:03.214Z,13.07
2023-01-08T13:09:31.799Z,15.55
2023-01-08T13:12:00.517Z,13.35
2023-01-08T13:14:28.368Z,12.07
2023-01-08T13:17:17.839Z,11.77
2023-01-08T13:19:51.295Z,11.48
2023-01-08T13:22:31.936Z,12.13
2023-01-08T13:25:15.726Z,11.20
2023-01-08T13:27:43.209Z,11.75
2023-01-08T13:30:32.001Z,11.38
2023-01-08T13:32:59.076Z,14.40
2023-01-08T13:35:31.929Z,12.25
2023-01-08T13:38:10.742Z,11.48
2023-01-08T13:40:43.835Z,11.75
2023-01-08T13:43:38.874Z,14.50
2023-01-08T13:46:16.222Z,12.98
2023-01-08T13:49:09.489Z,11.63
2023-01-08T13:51:39.211Z,11.98
2023-01-08T13:54:17.678Z,11.20
2023-01-08T13:56:47.108Z,11.88
2023-01-08T13:59:36.752Z,10.50
2023-01-08T14:02:04.046Z,11.35
2023-01-08T14:04:30.989Z,11.18
2023-01-08T14:07:14.505Z,12.25
2023-01-08T14:09:41.432Z,12.00
2023-01-08T14:12:16.008Z,12.30
2023-01-08T14:14:50.913Z,11.65
2023-01-08T14:17:20.174Z,11.40
2023-01-08T14:19:47.976Z,12.18
2023-01-08T14:22:19.782Z,13.25
2023-01-08T14:24:53.066Z,16.25
2023-01-08T14:27:23.263Z,21.67
2023-01-08T14:29:50.256Z,17.65
2023-01-08T14:32:20.396Z,13.80
2023-01-08T14:34:49.668Z,11.73
2023-01-08T14:37:17.560Z,13.68
2023-01-08T14:39:46.165Z,12.20
2023-01-08T14:42:39.113Z,12.35
2023-01-08T14:45:11.095Z,10.30
2023-01-08T14:47:43.210Z,10.85
2023-01-08T14:50:27.000Z,12.00
2023-01-08T14:53:03.943Z,11.80
2023-01-08T14:55:32.763Z,12.45
2023-01-08T14:57:59.718Z,11.13
2023-01-08T15:00:31.338Z,12.27
2023-01-08T15:05:30.360Z,12.25
2023-01-08T15:08:03.349Z,9.77
2023-01-08T15:10:42.021Z,12.27
2023-01-08T15:13:29.862Z,11.50
2023-01-08T15:16:06.960Z,10.85
2023-01-08T15:18:43.200Z,11.13
2023-01-08T15:21:10.364Z,12.23
2023-01-08T15:23:42.991Z,12.93
2023-01-08T15:26:13.397Z,13.52
2023-01-08T15:28:54.530Z,12.23
2023-01-08T15:31:31.467Z,12.00
2023-01-08T15:34:00.067Z,10.98
2023-01-08T15:36:27.288Z,12.80
2023-01-08T15:38:54.206Z,12.95
2023-01-08T15:41:41.424Z,12.13
2023-01-08T15:44:10.470Z,12.27
2023-01-08T15:46:37.411Z,12.05
2023-01-08T15:49:04.778Z,12.55
2023-01-08T15:51:34.068Z,13.13
2023-01-08T15:54:02.091Z,12.65
2023-01-08T15:56:29.076Z,12.10
2023-01-08T15:58:56.093Z,12.75
2023-01-08T16:01:23.115Z,11.68
2023-01-08T16:03:50.195Z,14.00
2023-01-08T16:06:17.121Z,11.98
2023-01-08T16:08:46.178Z,13.10
2023-01-08T16:11:13.939Z,12.43
2023-01-08T16:13:40.999Z,12.00
2023-01-08T16:16:15.665Z,11.27
2023-01-08T16:18:43.126Z,11.45
2023-01-08T16:21:11.151Z,13.23
2023-01-08T16:23:39.605Z,12.50
2023-01-08T16:26:08.135Z,12.90
2023-01-08T16:28:35.574Z,12.85
2023-01-08T16:31:03.356Z,12.63
2023-01-08T16:33:30.236Z,10.63
2023-01-08T16:36:02.232Z,10.70
2023-01-08T16:38:29.598Z,13.27
2023-01-08T16:40:57.223Z,11.98
2023-01-08T16:43:31.514Z,11.43
2023-01-08T16:46:03.308Z,11.55
2023-01-08T16:48:30.920Z,11.77
2023-01-08T16:51:05.410Z,11.80
2023-01-08T16:53:32.941Z,11.82
2023-01-08T16:56:00.350Z,7.70
2023-01-08T16:58:27.506Z,11.95
2023-01-08T17:00:54.508Z,12.05
2023-01-08T17:03:22.387Z,12.27
2023-01-08T17:05:49.736Z,12.60
2023-01-08T17:08:17.102Z,12.93
2023-01-08T17:10:44.565Z,11.50
2023-01-08T17:13:11.972Z,11.77
2023-01-08T17:15:40.180Z,11.10
2023-01-08T17:18:07.073Z,10.05
2023-01-08T17:20:33.924Z,10.98
2023-01-08T17:23:01.744Z,11.30
2023-01-08T17:25:28.749Z,10.05
2023-01-08T17:27:55.698Z,10.88
2023-01-08T17:30:22.723Z,11.13
2023-01-08T17:32:49.558Z,12.13
2023-01-08T17:35:16.545Z,11.15
2023-01-08T17:37:43.424Z,11.57
2023-01-08T17:40:11.023Z,10.75
2023-01-08T17:42:39.326Z,12.45
2023-01-08T17:45:06.904Z,11.43
2023-01-08T17:47:35.104Z,13.82
2023-01-08T17:50:03.431Z,10.88
2023-01-08T17:52:30.257Z,9.95
2023-01-08T17:54:57.458Z,10.63
2023-01-08T17:57:24.477Z,10.15
2023-01-08T17:59:51.435Z,10.93
2023-01-08T18:02:18.418Z,11.43
2023-01-08T18:04:48.940Z,10.43
2023-01-08T18:07:15.963Z,10.27
2023-01-08T18:09:42.958Z,12.40
2023-01-08T18:12:09.907Z,10.38
2023-01-08T18:14:39.041Z,10.70
2023-01-08T18:17:06.291Z,9.85
2023-01-08T18:19:33.414Z,11.43
2023-01-08T18:22:00.901Z,11.05
2023-01-08T18:24:28.270Z,10.52
2023-01-08T18:26:55.183Z,10.98
2023-01-08T18:29:22.117Z,10.95
2023-01-08T18:31:49.013Z,11.57
2023-01-08T18:34:16.170Z,11.07
2023-01-08T18:36:43.392Z,12.00
2023-01-08T18:39:12.199Z,10.65
2023-01-08T18:41:57.810Z,7.45
2023-01-08T18:44:25.181Z,11.88
2023-01-08T18:46:52.116Z,10.15
2023-01-08T18:49:20.264Z,10.98
2023-01-08T18:51:47.334Z,11.48
2023-01-08T18:54:14.295Z,9.68
2023-01-08T18:56:41.403Z,10.05
2023-01-08T18:59:08.461Z,9.93
2023-01-08T19:01:36.387Z,11.93
2023-01-08T19:04:04.004Z,11.32
2023-01-08T19:06:31.158Z,11.88
2023-01-08T19:08:59.272Z,9.13
2023-01-08T19:11:26.548Z,10.88
2023-01-08T19:13:57.734Z,10.95
2023-01-08T19:16:24.948Z,9.18
2023-01-08T19:18:51.891Z,10.77
2023-01-08T19:21:19.607Z,11.23
2023-01-08T19:23:47.621Z,10.02
2023-01-08T19:26:15.400Z,9.73
2023-01-08T19:28:43.157Z,10.32
2023-01-08T19:31:13.848Z,9.73
2023-01-08T19:33:41.585Z,11.37
2023-01-08T19:36:12.622Z,11.15
2023-01-08T19:38:40.461Z,10.65
2023-01-08T19:41:30.995Z,10.45
2023-01-08T19:43:58.953Z,11.57
2023-01-08T19:46:26.099Z,11.82
2023-01-08T19:48:53.115Z,11.48
2023-01-08T19:51:20.097Z,12.15
2023-01-08T19:53:46.996Z,11.68
2023-01-08T19:56:15.046Z,11.15
2023-01-08T19:58:42.657Z,10.73
2023-01-08T20:01:21.140Z,11.18
2023-01-08T20:03:48.574Z,12.43
2023-01-08T20:06:19.815Z,12.68
2023-01-08T20:08:53.252Z,11.50
2023-01-08T20:11:22.290Z,12.40
2023-01-08T20:13:50.273Z,11.30
2023-01-08T20:16:19.231Z,11.02
2023-01-08T20:18:46.489Z,11.45
2023-01-08T20:21:21.755Z,10.30
2023-01-08T20:23:49.043Z,11.82
2023-01-08T20:26:18.140Z,11.60
2023-01-08T20:28:46.447Z,11.60
2023-01-08T20:31:20.805Z,10.73
2023-01-08T20:33:48.664Z,10.43
2023-01-08T20:36:18.851Z,11.43
2023-01-08T20:38:46.602Z,12.35
2023-01-08T20:41:13.820Z,11.07
2023-01-08T20:43:41.125Z,11.93
2023-01-08T20:46:09.932Z,11.68
2023-01-08T20:48:42.890Z,11.52
2023-01-08T20:51:13.655Z,11.50
2023-01-08T20:53:41.212Z,11.55
2023-01-08T20:56:10.629Z,10.90
2023-01-08T20:58:39.543Z,11.45
2023-01-08T21:01:11.082Z,10.77
2023-01-08T21:06:10.395Z,10.05
2023-01-08T21:08:37.348Z,11.23
2023-01-08T21:11:06.311Z,10.73
2023-01-08T21:13:33.711Z,11.75
2023-01-08T21:16:09.789Z,11.93
2023-01-08T21:18:37.067Z,11.43
2023-01-08T21:21:05.509Z,10.32
2023-01-08T21:23:34.034Z,11.20
2023-01-08T21:26:04.188Z,10.77
2023-01-08T21:28:31.716Z,10.88
2023-01-08T21:31:10.406Z,11.50
2023-01-08T21:33:41.069Z,10.82
2023-01-08T21:36:13.923Z,11.87
2023-01-08T21:38:41.542Z,11.65
2023-01-08T21:41:10.941Z,11.38
2023-01-08T21:43:56.516Z,10.85
2023-01-08T21:46:28.148Z,11.18
2023-01-08T21:51:40.204Z,10.93
2023-01-08T21:54:07.096Z,10.65
2023-01-08T21:56:34.028Z,9.68
2023-01-08T21:59:00.881Z,11.15
2023-01-08T22:01:27.901Z,11.63
2023-01-08T22:03:54.947Z,10.85
2023-01-08T22:06:21.912Z,10.82
2023-01-08T22:08:53.862Z,10.80
2023-01-08T22:11:21.508Z,10.50
2023-01-08T22:13:48.366Z,10.55
2023-01-08T22:16:15.275Z,10.95
2023-01-08T22:18:42.168Z,11.00
2023-01-08T22:21:12.043Z,11.07
2023-01-08T22:23:39.431Z,10.30
2023-01-08T22:26:08.637Z,10.00
2023-01-08T22:28:39.387Z,11.02
2023-01-08T22:31:11.360Z,10.35
2023-01-08T22:33:39.668Z,9.50
2023-01-08T22:36:09.742Z,11.00
2023-01-08T22:38:37.299Z,10.07
2023-01-08T22:41:08.627Z,10.98
2023-01-08T22:43:35.509Z,10.27
2023-01-08T22:46:02.380Z,10.95
2023-01-08T22:48:29.316Z,11.77
2023-01-08T22:51:01.778Z,10.38
2023-01-08T22:53:28.699Z,10.73
2023-01-08T22:55:55.586Z,10.20
2023-01-08T22:58:22.669Z,10.23
2023-01-08T23:00:49.766Z,10.60
2023-01-08T23:03:16.792Z,10.43
2023-01-08T23:05:43.720Z,10.50
2023-01-08T23:08:11.084Z,11.02
2023-01-08T23:10:38.256Z,9.93
2023-01-08T23:13:05.117Z,9.77
2023-01-08T23:15:32.044Z,10.80
2023-01-08T23:17:58.989Z,10.63
2023-01-08T23:20:25.856Z,11.38
2023-01-08T23:22:53.513Z,10.57
2023-01-08T23:25:20.598Z,10.80
2023-01-08T23:27:47.570Z,11.57
2023-01-08T23:30:14.551Z,10.95
2023-01-08T23:32:41.431Z,10.98
2023-01-08T23:35:08.678Z,7.75
2023-01-08T23:37:35.656Z,9.70
2023-01-08T23:40:02.553Z,11.07
2023-01-08T23:42:30.052Z,11.45
2023-01-08T23:44:56.945Z,10.77
2023-01-08T23:47:24.231Z,11.73
2023-01-08T23:49:51.123Z,11.57
2023-01-08T23:52:17.972Z,10.68
2023-01-08T23:54:45.001Z,11.10
2023-01-08T23:57:11.937Z,10.02
2023-01-08T23:59:38.808Z,9.48
